首页
METAR-TAF:

METAR-TAF

机场 :

里尔, 法国

纬度: 50-34N, 经度: 003-06E, 海拔: 48米

当前天气观测

该预报发布于27分钟前的01:00 UTC
风速4节,风向东转东南
温度 7°C
湿度 66%
气压 1016 hPa
能见度10公里或以上
1500米以下无云,无积雨云

METAR: LFQQ 080100Z AUTO 11004KT CAVOK 07/01 Q1016 NOSIG

时间: 03:27 (01:27 UTC)

预报

该预报发布于2小时和27分钟前的23:00 UTC
预报有效从08日的 00点(UTC)到 09日的 06点(UTC)
风速2节,风向多变
能见度10公里或以上
1500米以下无云,无积雨云
成为
从 08日的 03点(UTC)到 08日的 06点(UTC)
风速10节,风向南转南东
短暂存在
从 08日的 07点(UTC)到 08日的 11点(UTC)
能見度: 3000
阴天层高于3000英尺
短暂存在
从 08日的 11点(UTC)到 08日的 16点(UTC)
风速15节,风向南转西南,有时为25节阵风

TAF: LFQQ 072300Z 0800/0906 VRB02KT CAVOK BECMG 0803/0806 16010KT TEMPO 0807/0811 3000 RA OVC030 TEMPO 0811/0816 21015G25KT

超过4000个机场的气象观测和天气预报(METAR&TAF报告)。

可查询的气象台以黄色和红色小点在地图上表示。

将鼠标移到小点上方,可查看气象台名称。

然后点击查看天气观测和预报。

如需切换地图:点击带黑十字的绿色按钮放大地图;点击带横线的绿色按钮缩小地图;或者点击绿色箭头查看邻近地区的地图。


METAR-TAF: